sensor_id;sensor_type;location;lat;lon;timestamp;pressure;altitude;pressure_sealevel;temperature;humidity
79174;BME280;68599;49.142;9.124;2023-03-22T00:02:02;99579.98;;;8.88;69.40
79174;BME280;68599;49.142;9.124;2023-03-22T00:04:29;99584.59;;;8.77;69.80
79174;BME280;68599;49.142;9.124;2023-03-22T00:06:56;99584.51;;;8.67;71.25
79174;BME280;68599;49.142;9.124;2023-03-22T00:09:23;99584.59;;;8.59;73.34
79174;BME280;68599;49.142;9.124;2023-03-22T00:11:49;99577.13;;;8.51;72.85
79174;BME280;68599;49.142;9.124;2023-03-22T00:14:17;99578.77;;;8.50;73.31
79174;BME280;68599;49.142;9.124;2023-03-22T00:16:44;99574.84;;;8.46;73.11
79174;BME280;68599;49.142;9.124;2023-03-22T00:19:11;99574.36;;;8.42;73.53
79174;BME280;68599;49.142;9.124;2023-03-22T00:21:38;99569.02;;;8.37;73.06
79174;BME280;68599;49.142;9.124;2023-03-22T00:24:04;99568.46;;;8.38;73.77
79174;BME280;68599;49.142;9.124;2023-03-22T00:26:31;99561.31;;;8.35;74.15
79174;BME280;68599;49.142;9.124;2023-03-22T00:28:58;99555.77;;;8.29;72.98
79174;BME280;68599;49.142;9.124;2023-03-22T00:31:25;99548.60;;;8.28;72.26
79174;BME280;68599;49.142;9.124;2023-03-22T00:33:52;99549.70;;;8.23;74.20
79174;BME280;68599;49.142;9.124;2023-03-22T00:36:18;99550.34;;;8.13;72.16
79174;BME280;68599;49.142;9.124;2023-03-22T00:38:45;99546.83;;;8.04;72.94
79174;BME280;68599;49.142;9.124;2023-03-22T00:41:20;99547.27;;;7.96;71.09
79174;BME280;68599;49.142;9.124;2023-03-22T00:43:47;99545.74;;;7.83;70.86
79174;BME280;68599;49.142;9.124;2023-03-22T00:46:15;99547.98;;;7.72;73.45
79174;BME280;68599;49.142;9.124;2023-03-22T00:48:43;99547.34;;;7.62;74.54
79174;BME280;68599;49.142;9.124;2023-03-22T00:51:12;99543.26;;;7.54;73.01
79174;BME280;68599;49.142;9.124;2023-03-22T00:53:39;99540.27;;;7.45;71.69
79174;BME280;68599;49.142;9.124;2023-03-22T00:56:12;99539.04;;;7.41;73.23
79174;BME280;68599;49.142;9.124;2023-03-22T00:58:40;99533.67;;;7.39;73.15
79174;BME280;68599;49.142;9.124;2023-03-22T01:01:07;99532.25;;;7.37;73.18
79174;BME280;68599;49.142;9.124;2023-03-22T01:03:34;99529.39;;;7.35;73.75
79174;BME280;68599;49.142;9.124;2023-03-22T01:06:00;99528.15;;;7.33;74.13
79174;BME280;68599;49.142;9.124;2023-03-22T01:08:27;99523.84;;;7.33;73.52
79174;BME280;68599;49.142;9.124;2023-03-22T01:10:58;99517.05;;;7.30;74.37
79174;BME280;68599;49.142;9.124;2023-03-22T01:13:25;99511.33;;;7.27;74.15
79174;BME280;68599;49.142;9.124;2023-03-22T01:15:52;99507.92;;;7.28;73.18
79174;BME280;68599;49.142;9.124;2023-03-22T01:18:19;99506.48;;;7.27;73.99
79174;BME280;68599;49.142;9.124;2023-03-22T01:20:45;99499.51;;;7.27;73.14
79174;BME280;68599;49.142;9.124;2023-03-22T01:23:12;99499.33;;;7.26;72.53
79174;BME280;68599;49.142;9.124;2023-03-22T01:25:38;99496.31;;;7.24;72.96
79174;BME280;68599;49.142;9.124;2023-03-22T01:28:05;99495.79;;;7.20;71.58
79174;BME280;68599;49.142;9.124;2023-03-22T01:30:33;99491.00;;;7.11;73.35
79174;BME280;68599;49.142;9.124;2023-03-22T01:32:59;99503.05;;;7.03;73.62
79174;BME280;68599;49.142;9.124;2023-03-22T01:35:26;99501.28;;;6.98;72.64
79174;BME280;68599;49.142;9.124;2023-03-22T01:37:52;99501.48;;;6.96;73.24
79174;BME280;68599;49.142;9.124;2023-03-22T01:40:19;99495.55;;;6.97;72.95
79174;BME280;68599;49.142;9.124;2023-03-22T01:42:45;99498.59;;;6.98;73.96
79174;BME280;68599;49.142;9.124;2023-03-22T01:47:47;99494.09;;;7.03;73.88
79174;BME280;68599;49.142;9.124;2023-03-22T01:50:15;99487.80;;;7.07;74.64
79174;BME280;68599;49.142;9.124;2023-03-22T01:52:43;99489.77;;;7.07;74.64
79174;BME280;68599;49.142;9.124;2023-03-22T01:55:10;99491.92;;;7.07;75.87
79174;BME280;68599;49.142;9.124;2023-03-22T01:57:37;99493.57;;;6.99;77.07
79174;BME280;68599;49.142;9.124;2023-03-22T02:00:07;99482.79;;;7.06;76.33
79174;BME280;68599;49.142;9.124;2023-03-22T02:02:36;99489.13;;;7.24;75.36
79174;BME280;68599;49.142;9.124;2023-03-22T02:05:02;99482.41;;;7.39;74.71
79174;BME280;68599;49.142;9.124;2023-03-22T02:07:30;99478.41;;;7.46;73.78
79174;BME280;68599;49.142;9.124;2023-03-22T02:09:57;99479.98;;;7.52;73.75
79174;BME280;68599;49.142;9.124;2023-03-22T02:16:06;99479.90;;;7.62;74.79
79174;BME280;68599;49.142;9.124;2023-03-22T02:21:12;99480.77;;;7.86;74.54
79174;BME280;68599;49.142;9.124;2023-03-22T02:29:14;99475.83;;;8.17;74.37
79174;BME280;68599;49.142;9.124;2023-03-22T02:34:58;99463.64;;;8.35;74.44
79174;BME280;68599;49.142;9.124;2023-03-22T02:40:26;99464.14;;;8.53;74.20
79174;BME280;68599;49.142;9.124;2023-03-22T02:43:28;99461.94;;;8.58;74.08
79174;BME280;68599;49.142;9.124;2023-03-22T02:46:09;99460.10;;;8.61;73.86
79174;BME280;68599;49.142;9.124;2023-03-22T02:51:41;99451.42;;;8.66;73.13
79174;BME280;68599;49.142;9.124;2023-03-22T02:54:17;99453.41;;;8.65;72.79
79174;BME280;68599;49.142;9.124;2023-03-22T02:56:49;99454.95;;;8.71;72.50
79174;BME280;68599;49.142;9.124;2023-03-22T02:59:18;99455.45;;;8.74;72.49
79174;BME280;68599;49.142;9.124;2023-03-22T03:01:50;99453.47;;;8.75;72.18
79174;BME280;68599;49.142;9.124;2023-03-22T03:04:27;99457.92;;;8.79;72.28
79174;BME280;68599;49.142;9.124;2023-03-22T03:07:00;99456.48;;;8.78;71.70
79174;BME280;68599;49.142;9.124;2023-03-22T03:09:28;99461.70;;;8.78;71.60
79174;BME280;68599;49.142;9.124;2023-03-22T03:11:55;99456.13;;;8.76;71.30
79174;BME280;68599;49.142;9.124;2023-03-22T03:14:31;99456.16;;;8.75;71.00
79174;BME280;68599;49.142;9.124;2023-03-22T03:20:13;99454.03;;;8.73;70.72
79174;BME280;68599;49.142;9.124;2023-03-22T03:23:09;99455.18;;;8.67;71.18
79174;BME280;68599;49.142;9.124;2023-03-22T03:26:07;99454.42;;;8.70;70.79
79174;BME280;68599;49.142;9.124;2023-03-22T03:28:45;99454.02;;;8.60;71.58
79174;BME280;68599;49.142;9.124;2023-03-22T03:37:06;99463.02;;;8.44;72.25
79174;BME280;68599;49.142;9.124;2023-03-22T03:39:39;99466.07;;;8.42;72.64
79174;BME280;68599;49.142;9.124;2023-03-22T03:42:10;99468.22;;;8.43;72.48
79174;BME280;68599;49.142;9.124;2023-03-22T03:44:38;99458.14;;;8.45;72.41
79174;BME280;68599;49.142;9.124;2023-03-22T03:47:06;99458.99;;;8.49;72.36
79174;BME280;68599;49.142;9.124;2023-03-22T03:49:33;99457.30;;;8.55;72.29
79174;BME280;68599;49.142;9.124;2023-03-22T03:52:03;99454.33;;;8.63;71.94
79174;BME280;68599;49.142;9.124;2023-03-22T03:54:30;99458.90;;;8.71;71.66
79174;BME280;68599;49.142;9.124;2023-03-22T03:56:57;99454.38;;;8.75;71.46
79174;BME280;68599;49.142;9.124;2023-03-22T03:59:23;99456.70;;;8.74;71.00
79174;BME280;68599;49.142;9.124;2023-03-22T04:01:50;99456.38;;;8.71;71.39
79174;BME280;68599;49.142;9.124;2023-03-22T04:04:19;99452.79;;;8.71;70.99
79174;BME280;68599;49.142;9.124;2023-03-22T04:06:57;99449.05;;;8.69;71.11
79174;BME280;68599;49.142;9.124;2023-03-22T04:09:26;99446.93;;;8.66;71.22
79174;BME280;68599;49.142;9.124;2023-03-22T04:11:54;99444.81;;;8.63;71.22
79174;BME280;68599;49.142;9.124;2023-03-22T04:14:22;99445.56;;;8.61;71.22
79174;BME280;68599;49.142;9.124;2023-03-22T04:16:49;99445.42;;;8.57;72.26
79174;BME280;68599;49.142;9.124;2023-03-22T04:19:16;99442.39;;;8.56;72.05
79174;BME280;68599;49.142;9.124;2023-03-22T04:21:43;99447.92;;;8.59;72.24
79174;BME280;68599;49.142;9.124;2023-03-22T04:24:11;99445.56;;;8.61;71.72
79174;BME280;68599;49.142;9.124;2023-03-22T04:26:38;99447.52;;;8.63;72.25
79174;BME280;68599;49.142;9.124;2023-03-22T04:29:05;99445.85;;;8.67;72.00
79174;BME280;68599;49.142;9.124;2023-03-22T04:31:32;99440.58;;;8.71;71.89
79174;BME280;68599;49.142;9.124;2023-03-22T04:33:59;99434.45;;;8.72;71.52
79174;BME280;68599;49.142;9.124;2023-03-22T04:36:32;99434.81;;;8.72;71.82
79174;BME280;68599;49.142;9.124;2023-03-22T04:39:03;99433.20;;;8.71;71.55
79174;BME280;68599;49.142;9.124;2023-03-22T04:41:32;99426.05;;;8.70;71.42
79174;BME280;68599;49.142;9.124;2023-03-22T04:43:58;99424.96;;;8.71;71.35
79174;BME280;68599;49.142;9.124;2023-03-22T04:46:32;99418.57;;;8.65;71.82
79174;BME280;68599;49.142;9.124;2023-03-22T04:49:00;99417.86;;;8.64;71.22
79174;BME280;68599;49.142;9.124;2023-03-22T04:51:27;99412.16;;;8.61;71.48
79174;BME280;68599;49.142;9.124;2023-03-22T04:53:54;99412.78;;;8.55;71.56
79174;BME280;68599;49.142;9.124;2023-03-22T04:56:20;99402.34;;;8.56;71.91
79174;BME280;68599;49.142;9.124;2023-03-22T04:58:47;99400.20;;;8.55;71.76
79174;BME280;68599;49.142;9.124;2023-03-22T05:01:15;99400.78;;;8.51;71.87
79174;BME280;68599;49.142;9.124;2023-03-22T05:03:43;99402.32;;;8.44;71.88
79174;BME280;68599;49.142;9.124;2023-03-22T05:06:13;99405.63;;;8.38;71.45
79174;BME280;68599;49.142;9.124;2023-03-22T05:08:40;99405.34;;;8.30;72.07
79174;BME280;68599;49.142;9.124;2023-03-22T05:11:10;99402.00;;;8.22;71.81
79174;BME280;68599;49.142;9.124;2023-03-22T05:13:37;99402.45;;;8.14;72.23
79174;BME280;68599;49.142;9.124;2023-03-22T05:16:04;99403.05;;;8.08;71.92
79174;BME280;68599;49.142;9.124;2023-03-22T05:18:31;99399.36;;;8.02;72.73
79174;BME280;68599;49.142;9.124;2023-03-22T05:20:59;99401.69;;;8.01;73.05
79174;BME280;68599;49.142;9.124;2023-03-22T05:23:29;99406.20;;;7.99;73.70
79174;BME280;68599;49.142;9.124;2023-03-22T05:25:55;99403.30;;;8.01;73.00
79174;BME280;68599;49.142;9.124;2023-03-22T05:28:27;99407.08;;;8.01;73.02
79174;BME280;68599;49.142;9.124;2023-03-22T05:30:54;99411.75;;;8.01;72.97
79174;BME280;68599;49.142;9.124;2023-03-22T05:33:22;99418.39;;;8.01;72.66
79174;BME280;68599;49.142;9.124;2023-03-22T05:35:49;99420.58;;;7.96;72.97
79174;BME280;68599;49.142;9.124;2023-03-22T05:38:16;99424.92;;;7.94;73.03
79174;BME280;68599;49.142;9.124;2023-03-22T05:40:43;99428.35;;;7.92;73.08
79174;BME280;68599;49.142;9.124;2023-03-22T05:43:10;99426.91;;;7.90;73.20
79174;BME280;68599;49.142;9.124;2023-03-22T05:45:37;99428.88;;;7.91;73.10
79174;BME280;68599;49.142;9.124;2023-03-22T05:48:04;99428.70;;;7.93;73.16
79174;BME280;68599;49.142;9.124;2023-03-22T05:50:31;99425.77;;;7.99;73.43
79174;BME280;68599;49.142;9.124;2023-03-22T05:52:58;99419.58;;;8.05;72.99
79174;BME280;68599;49.142;9.124;2023-03-22T05:55:24;99421.30;;;8.14;72.65
79174;BME280;68599;49.142;9.124;2023-03-22T05:57:51;99422.51;;;8.18;72.49
79174;BME280;68599;49.142;9.124;2023-03-22T06:00:20;99425.89;;;8.21;72.47
79174;BME280;68599;49.142;9.124;2023-03-22T06:02:47;99427.98;;;8.25;72.43
79174;BME280;68599;49.142;9.124;2023-03-22T06:05:15;99432.96;;;8.31;72.27
79174;BME280;68599;49.142;9.124;2023-03-22T06:07:43;99433.63;;;8.38;71.91
79174;BME280;68599;49.142;9.124;2023-03-22T06:10:12;99434.62;;;8.46;71.58
79174;BME280;68599;49.142;9.124;2023-03-22T06:12:39;99438.80;;;8.56;71.26
79174;BME280;68599;49.142;9.124;2023-03-22T06:15:06;99441.20;;;8.65;70.86
79174;BME280;68599;49.142;9.124;2023-03-22T06:17:33;99439.11;;;8.74;70.68
79174;BME280;68599;49.142;9.124;2023-03-22T06:20:00;99442.77;;;8.83;70.33
79174;BME280;68599;49.142;9.124;2023-03-22T06:22:26;99443.86;;;8.94;69.92
79174;BME280;68599;49.142;9.124;2023-03-22T06:24:55;99445.89;;;9.03;69.79
79174;BME280;68599;49.142;9.124;2023-03-22T06:27:22;99442.55;;;9.10;69.45
79174;BME280;68599;49.142;9.124;2023-03-22T06:29:48;99445.16;;;9.18;69.17
79174;BME280;68599;49.142;9.124;2023-03-22T06:32:16;99441.09;;;9.25;68.93
79174;BME280;68599;49.142;9.124;2023-03-22T06:34:43;99444.14;;;9.14;68.70
79174;BME280;68599;49.142;9.124;2023-03-22T06:37:09;99450.21;;;9.16;68.67
79174;BME280;68599;49.142;9.124;2023-03-22T06:39:36;99445.83;;;9.21;68.55
79174;BME280;68599;49.142;9.124;2023-03-22T06:42:02;99446.33;;;9.25;68.66
79174;BME280;68599;49.142;9.124;2023-03-22T06:44:29;99449.41;;;9.33;68.28
79174;BME280;68599;49.142;9.124;2023-03-22T06:46:56;99452.92;;;9.51;67.75
79174;BME280;68599;49.142;9.124;2023-03-22T06:49:22;99452.73;;;9.94;66.77
79174;BME280;68599;49.142;9.124;2023-03-22T06:51:49;99453.38;;;11.00;63.84
79174;BME280;68599;49.142;9.124;2023-03-22T06:54:16;99448.86;;;11.99;61.50
79174;BME280;68599;49.142;9.124;2023-03-22T06:56:42;99445.13;;;12.69;58.81
79174;BME280;68599;49.142;9.124;2023-03-22T06:59:09;99440.84;;;13.17;57.64
79174;BME280;68599;49.142;9.124;2023-03-22T07:01:35;99444.11;;;13.10;56.92
79174;BME280;68599;49.142;9.124;2023-03-22T07:04:02;99443.05;;;12.72;57.37
79174;BME280;68599;49.142;9.124;2023-03-22T07:06:29;99444.64;;;12.29;58.38
79174;BME280;68599;49.142;9.124;2023-03-22T07:08:57;99444.58;;;11.97;59.23
79174;BME280;68599;49.142;9.124;2023-03-22T07:11:24;99448.02;;;11.83;60.24
79174;BME280;68599;49.142;9.124;2023-03-22T07:13:52;99445.39;;;11.80;59.80
79174;BME280;68599;49.142;9.124;2023-03-22T07:16:20;99450.80;;;11.79;60.14
79174;BME280;68599;49.142;9.124;2023-03-22T07:18:46;99445.03;;;11.80;60.45
79174;BME280;68599;49.142;9.124;2023-03-22T07:21:13;99443.71;;;11.89;60.49
79174;BME280;68599;49.142;9.124;2023-03-22T07:23:40;99442.27;;;12.23;59.79
79174;BME280;68599;49.142;9.124;2023-03-22T07:26:07;99441.20;;;12.49;59.58
79174;BME280;68599;49.142;9.124;2023-03-22T07:28:33;99442.48;;;12.54;58.54
79174;BME280;68599;49.142;9.124;2023-03-22T07:33:27;99444.05;;;12.63;58.65
79174;BME280;68599;49.142;9.124;2023-03-22T07:35:53;99445.09;;;13.07;57.82
79174;BME280;68599;49.142;9.124;2023-03-22T07:38:20;99445.97;;;13.49;56.36
79174;BME280;68599;49.142;9.124;2023-03-22T07:40:47;99447.06;;;13.55;55.71
79174;BME280;68599;49.142;9.124;2023-03-22T07:43:15;99445.94;;;13.51;54.77
79174;BME280;68599;49.142;9.124;2023-03-22T07:45:42;99445.09;;;13.54;55.31
79174;BME280;68599;49.142;9.124;2023-03-22T07:48:08;99446.42;;;13.58;55.59
79174;BME280;68599;49.142;9.124;2023-03-22T07:50:37;99445.80;;;13.49;55.32
79174;BME280;68599;49.142;9.124;2023-03-22T07:53:04;99446.64;;;13.79;55.55
79174;BME280;68599;49.142;9.124;2023-03-22T07:55:30;99444.65;;;13.74;54.29
79174;BME280;68599;49.142;9.124;2023-03-22T07:57:57;99440.02;;;13.82;55.12
79174;BME280;68599;49.142;9.124;2023-03-22T08:00:23;99439.76;;;14.00;54.75
79174;BME280;68599;49.142;9.124;2023-03-22T08:02:50;99442.41;;;13.96;54.03
79174;BME280;68599;49.142;9.124;2023-03-22T08:05:16;99445.40;;;13.56;54.70
79174;BME280;68599;49.142;9.124;2023-03-22T08:07:43;99440.69;;;13.34;55.27
79174;BME280;68599;49.142;9.124;2023-03-22T08:10:10;99441.15;;;13.80;54.70
79174;BME280;68599;49.142;9.124;2023-03-22T08:12:37;99439.46;;;13.93;54.24
79174;BME280;68599;49.142;9.124;2023-03-22T08:15:04;99439.48;;;14.24;53.88
79174;BME280;68599;49.142;9.124;2023-03-22T08:17:31;99441.08;;;14.36;53.31
79174;BME280;68599;49.142;9.124;2023-03-22T08:19:57;99440.37;;;14.40;53.08
79174;BME280;68599;49.142;9.124;2023-03-22T08:22:23;99439.83;;;14.75;52.01
79174;BME280;68599;49.142;9.124;2023-03-22T08:24:51;99439.52;;;14.83;51.12
79174;BME280;68599;49.142;9.124;2023-03-22T08:27:17;99441.05;;;15.05;50.74
79174;BME280;68599;49.142;9.124;2023-03-22T08:29:44;99437.73;;;15.29;50.42
79174;BME280;68599;49.142;9.124;2023-03-22T08:32:13;99436.64;;;15.43;50.02
79174;BME280;68599;49.142;9.124;2023-03-22T08:34:41;99431.90;;;15.75;49.78
79174;BME280;68599;49.142;9.124;2023-03-22T08:37:10;99434.31;;;16.12;48.61
79174;BME280;68599;49.142;9.124;2023-03-22T08:39:37;99431.34;;;16.39;47.14
79174;BME280;68599;49.142;9.124;2023-03-22T08:42:03;99426.61;;;16.23;47.71
79174;BME280;68599;49.142;9.124;2023-03-22T08:44:30;99426.67;;;16.38;47.90
79174;BME280;68599;49.142;9.124;2023-03-22T08:46:57;99429.31;;;16.77;47.28
79174;BME280;68599;49.142;9.124;2023-03-22T08:49:24;99428.79;;;16.84;45.50
79174;BME280;68599;49.142;9.124;2023-03-22T08:51:51;99426.09;;;16.72;45.60
79174;BME280;68599;49.142;9.124;2023-03-22T08:54:18;99427.38;;;16.59;45.19
79174;BME280;68599;49.142;9.124;2023-03-22T08:56:45;99422.01;;;16.97;44.76
79174;BME280;68599;49.142;9.124;2023-03-22T08:59:11;99421.95;;;17.52;43.60
79174;BME280;68599;49.142;9.124;2023-03-22T09:01:38;99416.45;;;17.82;42.90
79174;BME280;68599;49.142;9.124;2023-03-22T09:04:05;99415.73;;;18.17;42.61
79174;BME280;68599;49.142;9.124;2023-03-22T09:06:34;99407.34;;;18.63;41.55
79174;BME280;68599;49.142;9.124;2023-03-22T09:09:02;99406.08;;;19.06;39.95
79174;BME280;68599;49.142;9.124;2023-03-22T09:11:29;99403.95;;;19.60;39.00
79174;BME280;68599;49.142;9.124;2023-03-22T09:13:55;99399.38;;;19.92;38.38
79174;BME280;68599;49.142;9.124;2023-03-22T09:16:21;99398.81;;;20.61;37.40
79174;BME280;68599;49.142;9.124;2023-03-22T09:18:48;99399.80;;;21.03;34.73
79174;BME280;68599;49.142;9.124;2023-03-22T09:21:15;99399.48;;;21.31;34.02
79174;BME280;68599;49.142;9.124;2023-03-22T09:23:41;99391.33;;;21.94;33.40
79174;BME280;68599;49.142;9.124;2023-03-22T09:26:08;99388.29;;;23.80;29.87
79174;BME280;68599;49.142;9.124;2023-03-22T09:28:35;99377.98;;;25.07;27.94
79174;BME280;68599;49.142;9.124;2023-03-22T09:31:04;99375.50;;;26.02;26.13
79174;BME280;68599;49.142;9.124;2023-03-22T09:33:33;99370.55;;;27.41;25.14
79174;BME280;68599;49.142;9.124;2023-03-22T09:36:00;99362.07;;;28.30;23.36
79174;BME280;68599;49.142;9.124;2023-03-22T09:38:26;99363.77;;;29.32;22.67
79174;BME280;68599;49.142;9.124;2023-03-22T09:40:58;99360.54;;;30.34;20.87
79174;BME280;68599;49.142;9.124;2023-03-22T09:43:31;99359.14;;;30.27;21.01
79174;BME280;68599;49.142;9.124;2023-03-22T09:45:59;99361.26;;;30.61;19.22
79174;BME280;68599;49.142;9.124;2023-03-22T09:48:33;99357.11;;;30.13;20.40
79174;BME280;68599;49.142;9.124;2023-03-22T09:51:03;99356.36;;;31.81;19.29
79174;BME280;68599;49.142;9.124;2023-03-22T09:53:31;99351.10;;;32.37;18.69
79174;BME280;68599;49.142;9.124;2023-03-22T09:56:15;99350.66;;;31.65;18.58
79174;BME280;68599;49.142;9.124;2023-03-22T09:59:09;99352.30;;;29.42;20.39
79174;BME280;68599;49.142;9.124;2023-03-22T10:01:54;99355.36;;;27.29;22.59
79174;BME280;68599;49.142;9.124;2023-03-22T10:09:58;99349.63;;;26.50;24.36
79174;BME280;68599;49.142;9.124;2023-03-22T10:15:46;99337.09;;;30.80;20.08
79174;BME280;68599;49.142;9.124;2023-03-22T10:18:19;99341.38;;;31.17;19.36
79174;BME280;68599;49.142;9.124;2023-03-22T10:20:48;99328.99;;;32.39;17.56
79174;BME280;68599;49.142;9.124;2023-03-22T10:23:23;99320.63;;;32.80;17.40
79174;BME280;68599;49.142;9.124;2023-03-22T10:25:52;99317.77;;;33.51;16.16
79174;BME280;68599;49.142;9.124;2023-03-22T10:28:24;99313.98;;;33.77;16.74
79174;BME280;68599;49.142;9.124;2023-03-22T10:30:54;99308.37;;;34.25;16.16
79174;BME280;68599;49.142;9.124;2023-03-22T10:33:41;99305.01;;;35.22;15.04
79174;BME280;68599;49.142;9.124;2023-03-22T10:36:19;99296.30;;;35.09;14.57
79174;BME280;68599;49.142;9.124;2023-03-22T10:38:58;99296.09;;;33.68;15.68
79174;BME280;68599;49.142;9.124;2023-03-22T10:41:27;99291.19;;;32.72;16.70
79174;BME280;68599;49.142;9.124;2023-03-22T10:43:57;99293.70;;;33.56;16.30
79174;BME280;68599;49.142;9.124;2023-03-22T10:46:30;99298.42;;;34.64;15.23
79174;BME280;68599;49.142;9.124;2023-03-22T10:48:59;99292.41;;;34.58;15.00
79174;BME280;68599;49.142;9.124;2023-03-22T10:51:34;99290.19;;;34.08;15.10
79174;BME280;68599;49.142;9.124;2023-03-22T10:54:04;99288.18;;;33.49;15.51
79174;BME280;68599;49.142;9.124;2023-03-22T10:56:31;99288.27;;;31.99;16.24
79174;BME280;68599;49.142;9.124;2023-03-22T10:58:57;99274.33;;;31.92;16.37
79174;BME280;68599;49.142;9.124;2023-03-22T11:01:35;99273.02;;;32.03;16.48
79174;BME280;68599;49.142;9.124;2023-03-22T11:04:09;99273.42;;;31.48;16.80
79174;BME280;68599;49.142;9.124;2023-03-22T11:06:59;99275.30;;;30.33;17.62
79174;BME280;68599;49.142;9.124;2023-03-22T11:09:24;99273.35;;;29.32;18.01
79174;BME280;68599;49.142;9.124;2023-03-22T11:11:55;99275.05;;;28.29;19.25
79174;BME280;68599;49.142;9.124;2023-03-22T11:14:43;99280.36;;;28.04;19.51
79174;BME280;68599;49.142;9.124;2023-03-22T11:17:17;99272.26;;;28.34;19.49
79174;BME280;68599;49.142;9.124;2023-03-22T11:22:25;99263.59;;;28.66;19.82
79174;BME280;68599;49.142;9.124;2023-03-22T11:24:57;99263.07;;;28.56;20.03
79174;BME280;68599;49.142;9.124;2023-03-22T11:27:29;99268.40;;;27.83;20.72
79174;BME280;68599;49.142;9.124;2023-03-22T11:29:58;99264.05;;;27.07;21.77
79174;BME280;68599;49.142;9.124;2023-03-22T11:35:17;99254.20;;;27.10;22.00
79174;BME280;68599;49.142;9.124;2023-03-22T11:37:51;99246.89;;;27.66;21.76
79174;BME280;68599;49.142;9.124;2023-03-22T11:40:24;99244.98;;;28.64;20.90
79174;BME280;68599;49.142;9.124;2023-03-22T11:43:15;99247.91;;;29.16;19.88
79174;BME280;68599;49.142;9.124;2023-03-22T11:45:43;99241.11;;;28.44;20.21
79174;BME280;68599;49.142;9.124;2023-03-22T11:48:16;99238.52;;;28.84;20.15
79174;BME280;68599;49.142;9.124;2023-03-22T11:50:44;99241.91;;;28.13;21.01
79174;BME280;68599;49.142;9.124;2023-03-22T11:53:17;99233.68;;;28.82;20.07
79174;BME280;68599;49.142;9.124;2023-03-22T11:55:46;99231.52;;;29.70;18.68
79174;BME280;68599;49.142;9.124;2023-03-22T11:58:27;99227.17;;;28.95;19.41
79174;BME280;68599;49.142;9.124;2023-03-22T12:00:57;99226.98;;;28.43;20.34
79174;BME280;68599;49.142;9.124;2023-03-22T12:03:37;99225.05;;;28.32;20.05
79174;BME280;68599;49.142;9.124;2023-03-22T12:06:17;99219.56;;;28.82;20.02
79174;BME280;68599;49.142;9.124;2023-03-22T12:08:50;99217.70;;;29.98;18.59
79174;BME280;68599;49.142;9.124;2023-03-22T12:11:33;99209.35;;;30.95;18.10
79174;BME280;68599;49.142;9.124;2023-03-22T12:14:11;99207.92;;;32.05;16.82
79174;BME280;68599;49.142;9.124;2023-03-22T12:22:37;99209.71;;;29.48;17.89
79174;BME280;68599;49.142;9.124;2023-03-22T12:25:19;99207.39;;;28.23;19.47
79174;BME280;68599;49.142;9.124;2023-03-22T12:27:49;99215.09;;;26.92;20.70
79174;BME280;68599;49.142;9.124;2023-03-22T12:30:21;99212.09;;;26.31;21.56
79174;BME280;68599;49.142;9.124;2023-03-22T12:33:13;99206.73;;;25.93;21.92
79174;BME280;68599;49.142;9.124;2023-03-22T12:35:43;99200.52;;;25.61;22.53
79174;BME280;68599;49.142;9.124;2023-03-22T12:41:00;99189.63;;;29.21;18.88
79174;BME280;68599;49.142;9.124;2023-03-22T12:43:57;99193.09;;;30.77;17.39
79174;BME280;68599;49.142;9.124;2023-03-22T12:46:29;99189.59;;;32.04;16.48
79174;BME280;68599;49.142;9.124;2023-03-22T12:49:02;99183.84;;;32.98;15.66
79174;BME280;68599;49.142;9.124;2023-03-22T12:51:31;99179.92;;;33.87;14.97
79174;BME280;68599;49.142;9.124;2023-03-22T12:53:59;99170.55;;;35.13;14.64
79174;BME280;68599;49.142;9.124;2023-03-22T12:56:37;99163.92;;;36.63;13.10
79174;BME280;68599;49.142;9.124;2023-03-22T12:59:06;99162.98;;;37.43;11.79
79174;BME280;68599;49.142;9.124;2023-03-22T13:01:47;99156.84;;;35.99;12.61
79174;BME280;68599;49.142;9.124;2023-03-22T13:07:30;99158.89;;;31.78;15.56
79174;BME280;68599;49.142;9.124;2023-03-22T13:09:58;99149.66;;;33.21;14.69
79174;BME280;68599;49.142;9.124;2023-03-22T13:12:29;99149.52;;;34.32;13.91
79174;BME280;68599;49.142;9.124;2023-03-22T13:30:26;99130.70;;;34.82;12.26
79174;BME280;68599;49.142;9.124;2023-03-22T13:35:46;99112.54;;;32.75;13.58
79174;BME280;68599;49.142;9.124;2023-03-22T13:41:07;99106.69;;;32.95;13.77
79174;BME280;68599;49.142;9.124;2023-03-22T13:43:55;99101.36;;;34.31;12.99
79174;BME280;68599;49.142;9.124;2023-03-22T13:51:30;99103.20;;;30.05;16.37
79174;BME280;68599;49.142;9.124;2023-03-22T13:56:58;99099.21;;;30.51;16.42
79174;BME280;68599;49.142;9.124;2023-03-22T14:02:14;99091.15;;;30.53;15.65
79174;BME280;68599;49.142;9.124;2023-03-22T14:04:47;99085.09;;;30.54;15.87
79174;BME280;68599;49.142;9.124;2023-03-22T14:07:27;99087.59;;;30.26;16.08
79174;BME280;68599;49.142;9.124;2023-03-22T14:09:57;99084.83;;;30.04;16.54
79174;BME280;68599;49.142;9.124;2023-03-22T14:12:47;99082.37;;;30.22;16.21
79174;BME280;68599;49.142;9.124;2023-03-22T14:15:20;99081.73;;;29.49;16.78
79174;BME280;68599;49.142;9.124;2023-03-22T14:17:51;99075.30;;;29.15;17.17
79174;BME280;68599;49.142;9.124;2023-03-22T14:20:23;99071.90;;;28.99;17.55
79174;BME280;68599;49.142;9.124;2023-03-22T14:22:57;99070.45;;;28.20;18.84
79174;BME280;68599;49.142;9.124;2023-03-22T14:25:29;99070.77;;;27.82;19.64
79174;BME280;68599;49.142;9.124;2023-03-22T14:27:56;99071.20;;;28.06;19.12
79174;BME280;68599;49.142;9.124;2023-03-22T14:33:25;99066.52;;;26.27;21.10
79174;BME280;68599;49.142;9.124;2023-03-22T14:35:57;99068.30;;;25.83;21.58
79174;BME280;68599;49.142;9.124;2023-03-22T14:38:33;99071.05;;;25.04;22.64
79174;BME280;68599;49.142;9.124;2023-03-22T14:41:12;99069.90;;;24.33;23.07
79174;BME280;68599;49.142;9.124;2023-03-22T14:43:40;99065.64;;;23.61;23.37
79174;BME280;68599;49.142;9.124;2023-03-22T14:46:23;99067.88;;;23.04;24.34
79174;BME280;68599;49.142;9.124;2023-03-22T14:48:59;99061.41;;;22.92;24.68
79174;BME280;68599;49.142;9.124;2023-03-22T14:51:36;99057.21;;;23.02;24.60
79174;BME280;68599;49.142;9.124;2023-03-22T14:54:09;99053.41;;;22.75;25.11
79174;BME280;68599;49.142;9.124;2023-03-22T14:56:39;99055.44;;;22.60;25.59